sensor_id;sensor_type;location;lat;lon;timestamp;temperature;humidity
20081;DHT22;10200;49.232;9.222;2023-07-31T00:02:17;19.10;83.40
20081;DHT22;10200;49.232;9.222;2023-07-31T00:04:43;19.10;83.70
20081;DHT22;10200;49.232;9.222;2023-07-31T00:07:08;19.00;83.90
20081;DHT22;10200;49.232;9.222;2023-07-31T00:09:34;19.10;84.40
20081;DHT22;10200;49.232;9.222;2023-07-31T00:11:59;19.10;84.20
20081;DHT22;10200;49.232;9.222;2023-07-31T00:14:25;19.10;85.20
20081;DHT22;10200;49.232;9.222;2023-07-31T00:16:51;19.10;85.40
20081;DHT22;10200;49.232;9.222;2023-07-31T00:19:16;19.10;85.20
20081;DHT22;10200;49.232;9.222;2023-07-31T00:21:43;19.10;85.40
20081;DHT22;10200;49.232;9.222;2023-07-31T00:24:09;19.00;85.00
20081;DHT22;10200;49.232;9.222;2023-07-31T00:26:34;19.00;85.10
20081;DHT22;10200;49.232;9.222;2023-07-31T00:29:00;19.00;84.90
20081;DHT22;10200;49.232;9.222;2023-07-31T00:31:26;18.90;85.10
20081;DHT22;10200;49.232;9.222;2023-07-31T00:33:52;19.00;85.10
20081;DHT22;10200;49.232;9.222;2023-07-31T00:36:17;18.90;84.60
20081;DHT22;10200;49.232;9.222;2023-07-31T00:38:43;18.90;84.60
20081;DHT22;10200;49.232;9.222;2023-07-31T00:41:09;18.90;84.80
20081;DHT22;10200;49.232;9.222;2023-07-31T00:43:35;18.90;85.00
20081;DHT22;10200;49.232;9.222;2023-07-31T00:46:00;18.90;85.00
20081;DHT22;10200;49.232;9.222;2023-07-31T00:48:26;18.90;85.10
20081;DHT22;10200;49.232;9.222;2023-07-31T00:50:52;18.90;85.40
20081;DHT22;10200;49.232;9.222;2023-07-31T00:53:18;18.90;85.20
20081;DHT22;10200;49.232;9.222;2023-07-31T00:55:44;18.90;85.40
20081;DHT22;10200;49.232;9.222;2023-07-31T00:58:10;18.80;85.20
20081;DHT22;10200;49.232;9.222;2023-07-31T01:00:36;18.80;85.40
20081;DHT22;10200;49.232;9.222;2023-07-31T01:03:01;18.80;85.10
20081;DHT22;10200;49.232;9.222;2023-07-31T01:08:44;18.70;85.10
20081;DHT22;10200;49.232;9.222;2023-07-31T01:11:15;18.70;85.50
20081;DHT22;10200;49.232;9.222;2023-07-31T01:13:42;18.70;85.20
20081;DHT22;10200;49.232;9.222;2023-07-31T01:16:09;18.70;85.20
20081;DHT22;10200;49.232;9.222;2023-07-31T01:18:35;18.60;85.20
20081;DHT22;10200;49.232;9.222;2023-07-31T01:27:00;18.60;84.90
20081;DHT22;10200;49.232;9.222;2023-07-31T01:29:47;18.60;84.90
20081;DHT22;10200;49.232;9.222;2023-07-31T01:32:14;18.60;84.60
20081;DHT22;10200;49.232;9.222;2023-07-31T01:34:44;18.60;84.60
20081;DHT22;10200;49.232;9.222;2023-07-31T01:37:10;18.60;85.00
20081;DHT22;10200;49.232;9.222;2023-07-31T01:39:35;18.60;85.20
20081;DHT22;10200;49.232;9.222;2023-07-31T01:42:01;18.50;85.70
20081;DHT22;10200;49.232;9.222;2023-07-31T01:44:27;18.60;86.10
20081;DHT22;10200;49.232;9.222;2023-07-31T01:46:52;18.50;85.90
20081;DHT22;10200;49.232;9.222;2023-07-31T01:49:18;18.50;86.00
20081;DHT22;10200;49.232;9.222;2023-07-31T01:51:43;18.50;86.20
20081;DHT22;10200;49.232;9.222;2023-07-31T01:54:09;18.50;87.20
20081;DHT22;10200;49.232;9.222;2023-07-31T01:56:34;18.40;86.60
20081;DHT22;10200;49.232;9.222;2023-07-31T01:59:00;18.40;86.90
20081;DHT22;10200;49.232;9.222;2023-07-31T02:01:26;18.40;87.20
20081;DHT22;10200;49.232;9.222;2023-07-31T02:03:51;18.50;87.40
20081;DHT22;10200;49.232;9.222;2023-07-31T02:06:17;18.40;87.20
20081;DHT22;10200;49.232;9.222;2023-07-31T02:08:42;18.40;87.60
20081;DHT22;10200;49.232;9.222;2023-07-31T02:11:08;18.40;88.00
20081;DHT22;10200;49.232;9.222;2023-07-31T02:13:34;18.40;88.00
20081;DHT22;10200;49.232;9.222;2023-07-31T02:15:59;18.40;88.70
20081;DHT22;10200;49.232;9.222;2023-07-31T02:18:25;18.30;90.00
20081;DHT22;10200;49.232;9.222;2023-07-31T02:20:51;18.40;89.00
20081;DHT22;10200;49.232;9.222;2023-07-31T02:23:18;18.40;89.30
20081;DHT22;10200;49.232;9.222;2023-07-31T02:25:44;18.40;89.00
20081;DHT22;10200;49.232;9.222;2023-07-31T02:28:10;18.40;89.30
20081;DHT22;10200;49.232;9.222;2023-07-31T02:30:35;18.30;89.20
20081;DHT22;10200;49.232;9.222;2023-07-31T02:33:01;18.30;89.20
20081;DHT22;10200;49.232;9.222;2023-07-31T02:35:27;18.30;89.20
20081;DHT22;10200;49.232;9.222;2023-07-31T02:37:52;18.20;89.60
20081;DHT22;10200;49.232;9.222;2023-07-31T02:40:18;18.20;90.00
20081;DHT22;10200;49.232;9.222;2023-07-31T02:42:43;18.30;90.30
20081;DHT22;10200;49.232;9.222;2023-07-31T02:45:09;18.30;90.20
20081;DHT22;10200;49.232;9.222;2023-07-31T02:47:35;18.30;90.20
20081;DHT22;10200;49.232;9.222;2023-07-31T02:50:02;18.30;90.40
20081;DHT22;10200;49.232;9.222;2023-07-31T02:52:28;18.30;90.50
20081;DHT22;10200;49.232;9.222;2023-07-31T02:54:54;18.40;90.50
20081;DHT22;10200;49.232;9.222;2023-07-31T02:57:19;18.40;90.70
20081;DHT22;10200;49.232;9.222;2023-07-31T02:59:45;18.40;90.70
20081;DHT22;10200;49.232;9.222;2023-07-31T03:02:11;18.40;90.90
20081;DHT22;10200;49.232;9.222;2023-07-31T03:04:37;18.40;91.00
20081;DHT22;10200;49.232;9.222;2023-07-31T03:07:03;18.50;91.00
20081;DHT22;10200;49.232;9.222;2023-07-31T03:09:28;18.50;90.90
20081;DHT22;10200;49.232;9.222;2023-07-31T03:11:54;18.50;91.00
20081;DHT22;10200;49.232;9.222;2023-07-31T03:14:20;18.50;90.90
20081;DHT22;10200;49.232;9.222;2023-07-31T03:16:46;18.40;90.90
20081;DHT22;10200;49.232;9.222;2023-07-31T03:19:11;18.40;90.70
20081;DHT22;10200;49.232;9.222;2023-07-31T03:21:37;18.40;91.00
20081;DHT22;10200;49.232;9.222;2023-07-31T03:24:02;18.40;90.90
20081;DHT22;10200;49.232;9.222;2023-07-31T03:26:31;18.40;90.80
20081;DHT22;10200;49.232;9.222;2023-07-31T03:28:57;18.40;91.10
20081;DHT22;10200;49.232;9.222;2023-07-31T03:31:22;18.40;90.90
20081;DHT22;10200;49.232;9.222;2023-07-31T03:33:48;18.40;91.10
20081;DHT22;10200;49.232;9.222;2023-07-31T03:36:13;18.40;90.80
20081;DHT22;10200;49.232;9.222;2023-07-31T03:38:39;18.30;91.10
20081;DHT22;10200;49.232;9.222;2023-07-31T03:41:04;18.30;91.00
20081;DHT22;10200;49.232;9.222;2023-07-31T03:43:32;18.30;91.10
20081;DHT22;10200;49.232;9.222;2023-07-31T03:45:59;18.30;91.10
20081;DHT22;10200;49.232;9.222;2023-07-31T03:48:25;18.30;91.30
20081;DHT22;10200;49.232;9.222;2023-07-31T03:50:51;18.30;91.00
20081;DHT22;10200;49.232;9.222;2023-07-31T03:53:22;18.30;91.30
20081;DHT22;10200;49.232;9.222;2023-07-31T03:55:51;18.30;91.00
20081;DHT22;10200;49.232;9.222;2023-07-31T03:58:16;18.20;90.90
20081;DHT22;10200;49.232;9.222;2023-07-31T04:00:42;18.20;90.90
20081;DHT22;10200;49.232;9.222;2023-07-31T04:03:08;18.20;91.00
20081;DHT22;10200;49.232;9.222;2023-07-31T04:05:37;18.20;91.10
20081;DHT22;10200;49.232;9.222;2023-07-31T04:08:03;18.30;91.40
20081;DHT22;10200;49.232;9.222;2023-07-31T04:10:29;18.30;91.30
20081;DHT22;10200;49.232;9.222;2023-07-31T04:12:56;18.30;91.40
20081;DHT22;10200;49.232;9.222;2023-07-31T04:15:22;18.40;91.40
20081;DHT22;10200;49.232;9.222;2023-07-31T04:17:47;18.40;91.10
20081;DHT22;10200;49.232;9.222;2023-07-31T04:20:13;18.40;91.50
20081;DHT22;10200;49.232;9.222;2023-07-31T04:22:38;18.40;91.60
20081;DHT22;10200;49.232;9.222;2023-07-31T04:25:04;18.40;91.50
20081;DHT22;10200;49.232;9.222;2023-07-31T04:27:30;18.40;91.50
20081;DHT22;10200;49.232;9.222;2023-07-31T04:29:56;18.50;91.70
20081;DHT22;10200;49.232;9.222;2023-07-31T04:32:21;18.50;91.30
20081;DHT22;10200;49.232;9.222;2023-07-31T04:34:47;18.50;91.40
20081;DHT22;10200;49.232;9.222;2023-07-31T04:37:12;18.60;91.70
20081;DHT22;10200;49.232;9.222;2023-07-31T04:39:39;18.60;91.80
20081;DHT22;10200;49.232;9.222;2023-07-31T04:42:05;18.70;91.70
20081;DHT22;10200;49.232;9.222;2023-07-31T04:44:31;18.70;91.00
20081;DHT22;10200;49.232;9.222;2023-07-31T04:46:56;18.70;90.90
20081;DHT22;10200;49.232;9.222;2023-07-31T04:49:22;18.70;91.00
20081;DHT22;10200;49.232;9.222;2023-07-31T04:51:47;18.70;90.80
20081;DHT22;10200;49.232;9.222;2023-07-31T04:54:13;18.70;90.50
20081;DHT22;10200;49.232;9.222;2023-07-31T04:56:49;18.70;90.20
20081;DHT22;10200;49.232;9.222;2023-07-31T04:59:18;18.60;90.10
20081;DHT22;10200;49.232;9.222;2023-07-31T05:01:43;18.70;90.00
20081;DHT22;10200;49.232;9.222;2023-07-31T05:04:13;18.60;89.70
20081;DHT22;10200;49.232;9.222;2023-07-31T05:06:39;18.70;89.40
20081;DHT22;10200;49.232;9.222;2023-07-31T05:09:05;18.60;88.90
20081;DHT22;10200;49.232;9.222;2023-07-31T05:11:31;18.60;88.90
20081;DHT22;10200;49.232;9.222;2023-07-31T05:13:56;18.60;88.90
20081;DHT22;10200;49.232;9.222;2023-07-31T05:16:22;18.60;89.20
20081;DHT22;10200;49.232;9.222;2023-07-31T05:18:47;18.60;89.10
20081;DHT22;10200;49.232;9.222;2023-07-31T05:21:13;18.60;90.20
20081;DHT22;10200;49.232;9.222;2023-07-31T05:23:39;18.70;90.50
20081;DHT22;10200;49.232;9.222;2023-07-31T05:26:07;18.70;90.90
20081;DHT22;10200;49.232;9.222;2023-07-31T05:28:35;18.60;91.00
20081;DHT22;10200;49.232;9.222;2023-07-31T05:31:02;18.70;91.10
20081;DHT22;10200;49.232;9.222;2023-07-31T05:33:28;18.70;91.30
20081;DHT22;10200;49.232;9.222;2023-07-31T05:35:54;18.70;91.10
20081;DHT22;10200;49.232;9.222;2023-07-31T05:38:19;18.60;91.20
20081;DHT22;10200;49.232;9.222;2023-07-31T05:40:45;18.60;91.20
20081;DHT22;10200;49.232;9.222;2023-07-31T05:43:10;18.70;91.70
20081;DHT22;10200;49.232;9.222;2023-07-31T05:45:36;18.90;92.00
20081;DHT22;10200;49.232;9.222;2023-07-31T05:48:02;19.00;91.70
20081;DHT22;10200;49.232;9.222;2023-07-31T05:50:28;19.20;90.90
20081;DHT22;10200;49.232;9.222;2023-07-31T05:52:54;19.40;89.20
20081;DHT22;10200;49.232;9.222;2023-07-31T05:55:20;19.40;87.30
20081;DHT22;10200;49.232;9.222;2023-07-31T05:57:46;19.40;87.90
20081;DHT22;10200;49.232;9.222;2023-07-31T06:00:13;19.40;86.80
20081;DHT22;10200;49.232;9.222;2023-07-31T06:02:39;19.50;86.20
20081;DHT22;10200;49.232;9.222;2023-07-31T06:05:05;19.50;86.20
20081;DHT22;10200;49.232;9.222;2023-07-31T06:07:31;19.60;85.80
20081;DHT22;10200;49.232;9.222;2023-07-31T06:09:57;19.70;85.60
20081;DHT22;10200;49.232;9.222;2023-07-31T06:12:30;19.80;84.90
20081;DHT22;10200;49.232;9.222;2023-07-31T06:14:56;19.90;84.90
20081;DHT22;10200;49.232;9.222;2023-07-31T06:17:22;20.10;85.40
20081;DHT22;10200;49.232;9.222;2023-07-31T06:19:48;20.30;83.80
20081;DHT22;10200;49.232;9.222;2023-07-31T06:22:14;20.40;82.80
20081;DHT22;10200;49.232;9.222;2023-07-31T06:24:39;20.70;82.60
20081;DHT22;10200;49.232;9.222;2023-07-31T06:27:05;21.00;82.40
20081;DHT22;10200;49.232;9.222;2023-07-31T06:29:32;21.60;81.00
20081;DHT22;10200;49.232;9.222;2023-07-31T06:31:58;22.40;75.20
20081;DHT22;10200;49.232;9.222;2023-07-31T06:34:24;22.40;75.70
20081;DHT22;10200;49.232;9.222;2023-07-31T06:36:50;22.80;75.20
20081;DHT22;10200;49.232;9.222;2023-07-31T06:39:15;23.10;73.30
20081;DHT22;10200;49.232;9.222;2023-07-31T06:41:42;23.30;71.80
20081;DHT22;10200;49.232;9.222;2023-07-31T06:44:08;23.60;71.30
20081;DHT22;10200;49.232;9.222;2023-07-31T06:46:34;23.60;67.30
20081;DHT22;10200;49.232;9.222;2023-07-31T06:48:59;23.40;67.50
20081;DHT22;10200;49.232;9.222;2023-07-31T06:51:25;23.00;67.20
20081;DHT22;10200;49.232;9.222;2023-07-31T06:53:50;22.70;68.50
20081;DHT22;10200;49.232;9.222;2023-07-31T06:56:16;22.40;69.60
20081;DHT22;10200;49.232;9.222;2023-07-31T06:58:41;22.10;70.00
20081;DHT22;10200;49.232;9.222;2023-07-31T07:01:07;21.90;71.20
20081;DHT22;10200;49.232;9.222;2023-07-31T07:03:33;21.70;70.90
20081;DHT22;10200;49.232;9.222;2023-07-31T07:05:58;21.50;70.90
20081;DHT22;10200;49.232;9.222;2023-07-31T07:08:24;21.30;70.60
20081;DHT22;10200;49.232;9.222;2023-07-31T07:10:50;21.30;72.10
20081;DHT22;10200;49.232;9.222;2023-07-31T07:13:16;21.30;72.40
20081;DHT22;10200;49.232;9.222;2023-07-31T07:15:47;21.20;72.80
20081;DHT22;10200;49.232;9.222;2023-07-31T07:18:13;21.10;72.40
20081;DHT22;10200;49.232;9.222;2023-07-31T07:20:39;21.10;72.50
20081;DHT22;10200;49.232;9.222;2023-07-31T07:23:05;21.00;72.50
20081;DHT22;10200;49.232;9.222;2023-07-31T07:25:30;21.10;72.90
20081;DHT22;10200;49.232;9.222;2023-07-31T07:27:56;21.00;72.50
20081;DHT22;10200;49.232;9.222;2023-07-31T07:30:22;21.10;73.60
20081;DHT22;10200;49.232;9.222;2023-07-31T07:32:49;21.10;73.10
20081;DHT22;10200;49.232;9.222;2023-07-31T07:35:15;21.10;73.60
20081;DHT22;10200;49.232;9.222;2023-07-31T07:37:40;21.20;73.00
20081;DHT22;10200;49.232;9.222;2023-07-31T07:40:07;21.20;73.30
20081;DHT22;10200;49.232;9.222;2023-07-31T07:42:32;21.30;73.80
20081;DHT22;10200;49.232;9.222;2023-07-31T07:44:58;21.50;73.60
20081;DHT22;10200;49.232;9.222;2023-07-31T07:47:24;21.80;71.80
20081;DHT22;10200;49.232;9.222;2023-07-31T07:49:49;22.00;71.60
20081;DHT22;10200;49.232;9.222;2023-07-31T07:52:15;22.20;70.40
20081;DHT22;10200;49.232;9.222;2023-07-31T07:54:40;22.30;70.60
20081;DHT22;10200;49.232;9.222;2023-07-31T07:57:06;22.50;69.90
20081;DHT22;10200;49.232;9.222;2023-07-31T07:59:32;22.50;68.20
20081;DHT22;10200;49.232;9.222;2023-07-31T08:01:57;22.50;68.00
20081;DHT22;10200;49.232;9.222;2023-07-31T08:04:23;22.50;68.80
20081;DHT22;10200;49.232;9.222;2023-07-31T08:06:48;22.80;69.20
20081;DHT22;10200;49.232;9.222;2023-07-31T08:09:14;23.00;67.30
20081;DHT22;10200;49.232;9.222;2023-07-31T08:11:40;23.00;65.70
20081;DHT22;10200;49.232;9.222;2023-07-31T08:14:05;23.00;66.80
20081;DHT22;10200;49.232;9.222;2023-07-31T08:16:31;23.20;65.90
20081;DHT22;10200;49.232;9.222;2023-07-31T08:18:57;23.20;66.30
20081;DHT22;10200;49.232;9.222;2023-07-31T08:21:22;23.30;65.70
20081;DHT22;10200;49.232;9.222;2023-07-31T08:23:48;23.20;64.70
20081;DHT22;10200;49.232;9.222;2023-07-31T08:26:18;23.20;65.70
20081;DHT22;10200;49.232;9.222;2023-07-31T08:28:44;23.20;65.90
20081;DHT22;10200;49.232;9.222;2023-07-31T08:31:09;23.00;64.60
20081;DHT22;10200;49.232;9.222;2023-07-31T08:33:36;23.00;65.90
20081;DHT22;10200;49.232;9.222;2023-07-31T08:36:02;22.90;66.30
20081;DHT22;10200;49.232;9.222;2023-07-31T08:38:27;23.00;67.00
20081;DHT22;10200;49.232;9.222;2023-07-31T08:40:56;23.20;68.70
20081;DHT22;10200;49.232;9.222;2023-07-31T08:43:27;23.80;67.00
20081;DHT22;10200;49.232;9.222;2023-07-31T08:45:53;24.20;64.80
20081;DHT22;10200;49.232;9.222;2023-07-31T08:48:20;24.70;63.10
20081;DHT22;10200;49.232;9.222;2023-07-31T08:50:46;25.00;63.60
20081;DHT22;10200;49.232;9.222;2023-07-31T08:53:12;25.00;60.80
20081;DHT22;10200;49.232;9.222;2023-07-31T08:55:38;24.70;61.40
20081;DHT22;10200;49.232;9.222;2023-07-31T08:58:04;24.50;61.20
20081;DHT22;10200;49.232;9.222;2023-07-31T09:00:32;24.40;62.80
20081;DHT22;10200;49.232;9.222;2023-07-31T09:03:14;24.60;63.60
20081;DHT22;10200;49.232;9.222;2023-07-31T09:05:43;24.90;62.20
20081;DHT22;10200;49.232;9.222;2023-07-31T09:08:10;25.30;60.50
20081;DHT22;10200;49.232;9.222;2023-07-31T09:10:43;25.70;59.10
20081;DHT22;10200;49.232;9.222;2023-07-31T09:13:09;25.50;57.20
20081;DHT22;10200;49.232;9.222;2023-07-31T09:15:36;25.50;57.90
20081;DHT22;10200;49.232;9.222;2023-07-31T09:18:03;25.60;58.50
20081;DHT22;10200;49.232;9.222;2023-07-31T09:20:30;25.80;57.80
20081;DHT22;10200;49.232;9.222;2023-07-31T09:22:57;25.70;58.00
20081;DHT22;10200;49.232;9.222;2023-07-31T09:25:30;25.60;57.50
20081;DHT22;10200;49.232;9.222;2023-07-31T09:28:00;25.30;57.60
20081;DHT22;10200;49.232;9.222;2023-07-31T09:30:26;25.30;57.70
20081;DHT22;10200;49.232;9.222;2023-07-31T09:33:00;25.40;59.40
20081;DHT22;10200;49.232;9.222;2023-07-31T09:35:34;25.70;57.70
20081;DHT22;10200;49.232;9.222;2023-07-31T09:38:08;26.00;57.00
20081;DHT22;10200;49.232;9.222;2023-07-31T09:40:40;26.40;58.20
20081;DHT22;10200;49.232;9.222;2023-07-31T09:43:20;26.40;55.60
20081;DHT22;10200;49.232;9.222;2023-07-31T09:45:46;26.20;55.60
20081;DHT22;10200;49.232;9.222;2023-07-31T09:48:17;25.90;56.10
20081;DHT22;10200;49.232;9.222;2023-07-31T09:50:47;25.80;57.20
20081;DHT22;10200;49.232;9.222;2023-07-31T09:53:13;26.20;57.90
20081;DHT22;10200;49.232;9.222;2023-07-31T09:55:40;26.60;56.60
20081;DHT22;10200;49.232;9.222;2023-07-31T09:58:08;26.80;55.70
20081;DHT22;10200;49.232;9.222;2023-07-31T10:00:35;26.70;55.30
20081;DHT22;10200;49.232;9.222;2023-07-31T10:03:06;27.00;55.40
20081;DHT22;10200;49.232;9.222;2023-07-31T10:05:37;27.30;54.80
20081;DHT22;10200;49.232;9.222;2023-07-31T10:08:04;27.60;53.10
20081;DHT22;10200;49.232;9.222;2023-07-31T10:10:31;27.30;52.90
20081;DHT22;10200;49.232;9.222;2023-07-31T10:12:57;27.30;55.00
20081;DHT22;10200;49.232;9.222;2023-07-31T10:15:24;27.20;53.30
20081;DHT22;10200;49.232;9.222;2023-07-31T10:17:52;27.10;53.70
20081;DHT22;10200;49.232;9.222;2023-07-31T10:20:20;27.00;54.80
20081;DHT22;10200;49.232;9.222;2023-07-31T10:22:46;27.00;53.80
20081;DHT22;10200;49.232;9.222;2023-07-31T10:25:12;26.80;54.80
20081;DHT22;10200;49.232;9.222;2023-07-31T10:27:39;26.60;54.40
20081;DHT22;10200;49.232;9.222;2023-07-31T10:30:10;26.50;54.10
20081;DHT22;10200;49.232;9.222;2023-07-31T10:32:38;26.40;54.50
20081;DHT22;10200;49.232;9.222;2023-07-31T10:35:07;26.60;55.70
20081;DHT22;10200;49.232;9.222;2023-07-31T10:37:41;26.60;53.80
20081;DHT22;10200;49.232;9.222;2023-07-31T10:40:12;26.30;53.90
20081;DHT22;10200;49.232;9.222;2023-07-31T10:45:31;26.30;55.80
20081;DHT22;10200;49.232;9.222;2023-07-31T10:48:04;26.00;54.70
20081;DHT22;10200;49.232;9.222;2023-07-31T10:50:31;26.10;55.60
20081;DHT22;10200;49.232;9.222;2023-07-31T10:53:01;26.10;55.90
20081;DHT22;10200;49.232;9.222;2023-07-31T10:55:40;26.00;56.30
20081;DHT22;10200;49.232;9.222;2023-07-31T10:58:10;26.20;55.80
20081;DHT22;10200;49.232;9.222;2023-07-31T11:00:41;26.20;53.90
20081;DHT22;10200;49.232;9.222;2023-07-31T11:05:49;25.80;54.80
20081;DHT22;10200;49.232;9.222;2023-07-31T11:08:21;25.40;55.30
20081;DHT22;10200;49.232;9.222;2023-07-31T11:13:31;25.10;57.10
20081;DHT22;10200;49.232;9.222;2023-07-31T11:15:57;25.00;56.70
20081;DHT22;10200;49.232;9.222;2023-07-31T11:18:23;25.10;57.50
20081;DHT22;10200;49.232;9.222;2023-07-31T11:20:49;25.10;57.70
20081;DHT22;10200;49.232;9.222;2023-07-31T11:23:17;25.20;56.70
20081;DHT22;10200;49.232;9.222;2023-07-31T11:25:43;25.30;57.60
20081;DHT22;10200;49.232;9.222;2023-07-31T11:28:16;25.30;57.40
20081;DHT22;10200;49.232;9.222;2023-07-31T11:30:43;25.30;56.20
20081;DHT22;10200;49.232;9.222;2023-07-31T11:33:10;25.10;56.70
20081;DHT22;10200;49.232;9.222;2023-07-31T11:35:43;25.30;57.90
20081;DHT22;10200;49.232;9.222;2023-07-31T11:40:49;25.50;56.80
20081;DHT22;10200;49.232;9.222;2023-07-31T11:43:15;25.60;56.60
20081;DHT22;10200;49.232;9.222;2023-07-31T11:45:48;25.60;56.00
20081;DHT22;10200;49.232;9.222;2023-07-31T11:50:52;25.30;57.20
20081;DHT22;10200;49.232;9.222;2023-07-31T11:53:33;25.30;57.50
20081;DHT22;10200;49.232;9.222;2023-07-31T11:56:01;25.30;57.20
20081;DHT22;10200;49.232;9.222;2023-07-31T11:58:30;25.30;57.40
20081;DHT22;10200;49.232;9.222;2023-07-31T12:00:58;25.30;57.10
20081;DHT22;10200;49.232;9.222;2023-07-31T12:03:24;25.30;57.80
20081;DHT22;10200;49.232;9.222;2023-07-31T12:05:50;25.30;57.10
20081;DHT22;10200;49.232;9.222;2023-07-31T12:08:16;25.30;57.60
20081;DHT22;10200;49.232;9.222;2023-07-31T12:10:42;25.30;58.50
20081;DHT22;10200;49.232;9.222;2023-07-31T12:13:12;25.40;57.90
20081;DHT22;10200;49.232;9.222;2023-07-31T12:15:45;25.40;57.40
20081;DHT22;10200;49.232;9.222;2023-07-31T12:18:21;25.50;57.30
20081;DHT22;10200;49.232;9.222;2023-07-31T12:20:55;25.50;56.90
20081;DHT22;10200;49.232;9.222;2023-07-31T12:23:24;25.40;56.90
20081;DHT22;10200;49.232;9.222;2023-07-31T12:28:30;25.00;58.30
20081;DHT22;10200;49.232;9.222;2023-07-31T12:31:00;25.10;58.50
20081;DHT22;10200;49.232;9.222;2023-07-31T12:33:34;25.10;58.50
20081;DHT22;10200;49.232;9.222;2023-07-31T12:36:06;25.10;58.30
20081;DHT22;10200;49.232;9.222;2023-07-31T12:38:33;25.20;58.50
20081;DHT22;10200;49.232;9.222;2023-07-31T12:40:58;25.20;58.00
20081;DHT22;10200;49.232;9.222;2023-07-31T12:43:24;25.10;58.10
20081;DHT22;10200;49.232;9.222;2023-07-31T12:45:50;25.20;59.00
20081;DHT22;10200;49.232;9.222;2023-07-31T12:48:16;25.20;58.50
20081;DHT22;10200;49.232;9.222;2023-07-31T12:50:41;25.20;58.90
20081;DHT22;10200;49.232;9.222;2023-07-31T12:53:07;25.20;58.70
20081;DHT22;10200;49.232;9.222;2023-07-31T12:55:33;25.20;59.00
20081;DHT22;10200;49.232;9.222;2023-07-31T12:58:02;25.20;58.90
20081;DHT22;10200;49.232;9.222;2023-07-31T13:00:28;25.30;58.60
20081;DHT22;10200;49.232;9.222;2023-07-31T13:02:53;25.20;57.90
20081;DHT22;10200;49.232;9.222;2023-07-31T13:05:20;25.10;57.70
20081;DHT22;10200;49.232;9.222;2023-07-31T13:07:48;25.20;58.60
20081;DHT22;10200;49.232;9.222;2023-07-31T13:10:14;25.20;58.50
20081;DHT22;10200;49.232;9.222;2023-07-31T13:12:40;25.20;58.10
20081;DHT22;10200;49.232;9.222;2023-07-31T13:15:06;25.20;58.70
20081;DHT22;10200;49.232;9.222;2023-07-31T13:17:32;25.10;58.60
20081;DHT22;10200;49.232;9.222;2023-07-31T13:19:58;25.10;57.90
20081;DHT22;10200;49.232;9.222;2023-07-31T13:22:24;25.00;58.10
20081;DHT22;10200;49.232;9.222;2023-07-31T13:24:50;24.90;57.50
20081;DHT22;10200;49.232;9.222;2023-07-31T13:27:15;24.80;57.80
20081;DHT22;10200;49.232;9.222;2023-07-31T13:29:46;24.90;59.20
20081;DHT22;10200;49.232;9.222;2023-07-31T13:32:12;24.90;58.90
20081;DHT22;10200;49.232;9.222;2023-07-31T13:34:37;25.00;59.00
20081;DHT22;10200;49.232;9.222;2023-07-31T13:37:03;25.00;58.50
20081;DHT22;10200;49.232;9.222;2023-07-31T13:39:31;25.00;58.50
20081;DHT22;10200;49.232;9.222;2023-07-31T13:41:57;24.90;58.40
20081;DHT22;10200;49.232;9.222;2023-07-31T13:44:22;24.80;58.50
20081;DHT22;10200;49.232;9.222;2023-07-31T13:46:48;24.70;58.70
20081;DHT22;10200;49.232;9.222;2023-07-31T13:49:13;24.60;58.60
20081;DHT22;10200;49.232;9.222;2023-07-31T13:51:39;24.50;58.60
20081;DHT22;10200;49.232;9.222;2023-07-31T13:54:05;24.40;59.30
20081;DHT22;10200;49.232;9.222;2023-07-31T13:56:32;24.40;59.80
20081;DHT22;10200;49.232;9.222;2023-07-31T13:58:58;24.40;60.10
20081;DHT22;10200;49.232;9.222;2023-07-31T14:01:23;24.50;60.00
20081;DHT22;10200;49.232;9.222;2023-07-31T14:03:49;24.60;60.80
20081;DHT22;10200;49.232;9.222;2023-07-31T14:06:15;24.60;60.00
20081;DHT22;10200;49.232;9.222;2023-07-31T14:08:41;24.70;60.00
20081;DHT22;10200;49.232;9.222;2023-07-31T14:11:06;24.70;59.90
20081;DHT22;10200;49.232;9.222;2023-07-31T14:13:32;24.70;60.60
20081;DHT22;10200;49.232;9.222;2023-07-31T14:15:57;24.70;60.40
20081;DHT22;10200;49.232;9.222;2023-07-31T14:18:23;24.60;60.60
20081;DHT22;10200;49.232;9.222;2023-07-31T14:20:48;24.60;60.30
20081;DHT22;10200;49.232;9.222;2023-07-31T14:23:14;24.50;60.90
20081;DHT22;10200;49.232;9.222;2023-07-31T14:25:41;24.50;60.40
20081;DHT22;10200;49.232;9.222;2023-07-31T14:28:06;24.50;60.50
20081;DHT22;10200;49.232;9.222;2023-07-31T14:30:32;24.60;61.40
20081;DHT22;10200;49.232;9.222;2023-07-31T14:32:57;24.60;61.00
20081;DHT22;10200;49.232;9.222;2023-07-31T14:35:23;24.60;61.30
20081;DHT22;10200;49.232;9.222;2023-07-31T14:37:49;24.60;61.10
20081;DHT22;10200;49.232;9.222;2023-07-31T14:40:14;24.70;61.20
20081;DHT22;10200;49.232;9.222;2023-07-31T14:42:40;24.60;60.60
20081;DHT22;10200;49.232;9.222;2023-07-31T14:45:07;24.60;61.60
20081;DHT22;10200;49.232;9.222;2023-07-31T14:47:33;24.50;61.70
20081;DHT22;10200;49.232;9.222;2023-07-31T14:49:59;24.50;61.60
20081;DHT22;10200;49.232;9.222;2023-07-31T14:52:25;24.40;61.40
20081;DHT22;10200;49.232;9.222;2023-07-31T14:54:51;24.40;61.40
20081;DHT22;10200;49.232;9.222;2023-07-31T14:57:17;24.40;61.90
20081;DHT22;10200;49.232;9.222;2023-07-31T14:59:42;24.40;61.90
20081;DHT22;10200;49.232;9.222;2023-07-31T15:02:09;24.40;61.70
20081;DHT22;10200;49.232;9.222;2023-07-31T15:04:35;24.50;62.30
20081;DHT22;10200;49.232;9.222;2023-07-31T15:07:01;24.50;61.80
20081;DHT22;10200;49.232;9.222;2023-07-31T15:09:26;24.50;62.20
20081;DHT22;10200;49.232;9.222;2023-07-31T15:11:52;24.60;62.10
20081;DHT22;10200;49.232;9.222;2023-07-31T15:14:17;24.60;62.20
20081;DHT22;10200;49.232;9.222;2023-07-31T15:16:43;24.60;62.70
20081;DHT22;10200;49.232;9.222;2023-07-31T15:19:09;24.60;63.00
20081;DHT22;10200;49.232;9.222;2023-07-31T15:21:36;24.60;63.20
20081;DHT22;10200;49.232;9.222;2023-07-31T15:24:02;24.60;62.80
20081;DHT22;10200;49.232;9.222;2023-07-31T15:26:27;24.60;62.20
20081;DHT22;10200;49.232;9.222;2023-07-31T15:29:05;24.60;62.80
20081;DHT22;10200;49.232;9.222;2023-07-31T15:31:35;24.50;62.20
20081;DHT22;10200;49.232;9.222;2023-07-31T15:34:01;24.50;62.00
20081;DHT22;10200;49.232;9.222;2023-07-31T15:36:26;24.50;62.50
20081;DHT22;10200;49.232;9.222;2023-07-31T15:38:52;24.50;62.40
20081;DHT22;10200;49.232;9.222;2023-07-31T15:41:18;24.60;62.80
20081;DHT22;10200;49.232;9.222;2023-07-31T15:43:44;24.70;62.40
20081;DHT22;10200;49.232;9.222;2023-07-31T15:46:10;24.80;62.70
20081;DHT22;10200;49.232;9.222;2023-07-31T15:48:36;24.90;62.20
20081;DHT22;10200;49.232;9.222;2023-07-31T15:51:01;24.90;61.60
20081;DHT22;10200;49.232;9.222;2023-07-31T15:53:28;25.00;61.70